Time;durP1;ratioP1;P1;durP2;ratioP2;P2;SDS_P1;SDS_P2;PMS_P1;PMS_P2;Temp;Humidity;BMP_temperature;BMP_pressure;BME280_temperature;BME280_humidity;BME280_pressure;Samples;Min_cycle;Max_cycle;Signal;HPM_P1;HPM_P2
2021/09/27 00:01:01;;;;;;;29.77;15.35;;;;;;;;;;5052124;28;20027;-61
2021/09/27 00:03:28;;;;;;;30.05;15.68;;;;;;;;;;4974690;28;20044;-60
2021/09/27 00:05:53;;;;;;;29.25;15.77;;;;;;;;;;4985334;28;20058;-59
2021/09/27 00:08:19;;;;;;;30.88;15.82;;;;;;;;;;5044112;28;20054;-60
2021/09/27 00:10:52;;;;;;;28.27;15.73;;;;;;;;;;4991947;28;20018;-58
2021/09/27 00:13:20;;;;;;;28.98;15.55;;;;;;;;;;4983782;28;20026;-59
2021/09/27 00:15:49;;;;;;;30.38;15.15;;;;;;;;;;4996558;28;20050;-57
2021/09/27 00:18:16;;;;;;;29.33;15.70;;;;;;;;;;4994573;28;20377;-58
2021/09/27 00:20:44;;;;;;;29.15;16.08;;;;;;;;;;4994947;28;20050;-57
2021/09/27 00:23:11;;;;;;;26.23;14.23;;;;;;;;;;4983311;28;20027;-57
2021/09/27 00:25:37;;;;;;;26.67;13.93;;;;;;;;;;4982508;28;20512;-60
2021/09/27 00:28:03;;;;;;;26.77;14.52;;;;;;;;;;5000780;28;20509;-61
2021/09/27 00:30:29;;;;;;;24.50;13.18;;;;;;;;;;4989313;28;20096;-58
2021/09/27 00:32:54;;;;;;;29.02;14.50;;;;;;;;;;4989782;28;20407;-58
2021/09/27 00:35:24;;;;;;;136.18;17.95;;;;;;;;;;4983551;28;20035;-58
2021/09/27 00:37:50;;;;;;;27.20;14.02;;;;;;;;;;4983302;28;20485;-58
2021/09/27 00:40:19;;;;;;;27.98;13.85;;;;;;;;;;4987695;28;20102;-57
2021/09/27 00:42:46;;;;;;;25.73;13.73;;;;;;;;;;4982488;28;20034;-58
2021/09/27 00:45:14;;;;;;;25.13;13.13;;;;;;;;;;4989576;28;20030;-58
2021/09/27 00:47:39;;;;;;;1530.38;773.15;;;;;;;;;;4989390;28;20027;-58
2021/09/27 00:50:07;;;;;;;1999.90;999.90;;;;;;;;;;4996033;28;20057;-58
2021/09/27 00:52:33;;;;;;;1999.90;999.90;;;;;;;;;;5061920;28;20069;-60
2021/09/27 00:54:59;;;;;;;1999.90;999.90;;;;;;;;;;4992934;28;20406;-61
2021/09/27 00:57:25;;;;;;;1999.90;999.90;;;;;;;;;;5064381;28;20030;-60
2021/09/27 00:59:54;;;;;;;28.83;14.75;;;;;;;;;;4985969;28;20458;-60
2021/09/27 01:02:20;;;;;;;27.35;15.15;;;;;;;;;;5005865;28;20037;-58
2021/09/27 01:04:45;;;;;;;1449.85;555.67;;;;;;;;;;4988382;28;20038;-60
2021/09/27 01:07:46;;;;;;;26.17;14.20;;;;;;;;;;5046422;28;20037;-59
2021/09/27 01:10:32;;;;;;;26.95;13.73;;;;;;;;;;4993116;28;20521;-61
2021/09/27 01:13:16;;;;;;;27.75;13.27;;;;;;;;;;5001435;28;20030;-58
2021/09/27 01:16:02;;;;;;;23.17;12.68;;;;;;;;;;5004179;28;20026;-61
2021/09/27 01:19:10;;;;;;;26.55;13.35;;;;;;;;;;5045026;28;20060;-61
2021/09/27 01:21:36;;;;;;;24.85;12.98;;;;;;;;;;4997335;28;20069;-57
2021/09/27 01:24:29;;;;;;;23.77;12.60;;;;;;;;;;5010223;28;20092;-58
2021/09/27 01:27:13;;;;;;;25.45;12.68;;;;;;;;;;5059023;28;20037;-58
2021/09/27 01:30:01;;;;;;;27.17;13.45;;;;;;;;;;5002926;28;20038;-61
2021/09/27 01:32:53;;;;;;;28.83;14.23;;;;;;;;;;5049469;28;20096;-61
2021/09/27 01:35:35;;;;;;;25.65;11.90;;;;;;;;;;4984969;28;20030;-61
2021/09/27 01:38:28;;;;;;;26.83;13.68;;;;;;;;;;4989089;28;20445;-57
2021/09/27 01:41:08;;;;;;;31.75;13.27;;;;;;;;;;4993990;28;20055;-58
2021/09/27 01:43:58;;;;;;;23.75;12.77;;;;;;;;;;4994897;28;20442;-58
2021/09/27 01:46:55;;;;;;;;;;;;;;;;;;4990210;28;20030;-58
2021/09/27 01:49:47;;;;;;;25.05;12.75;;;;;;;;;;5003748;28;20305;-58
2021/09/27 01:52:20;;;;;;;24.35;12.63;;;;;;;;;;4987064;28;20030;-57
2021/09/27 01:54:49;;;;;;;28.80;13.85;;;;;;;;;;4997591;28;20037;-57
2021/09/27 01:57:36;;;;;;;31.25;13.55;;;;;;;;;;4996233;28;20030;-58
2021/09/27 02:00:14;;;;;;;23.27;12.55;;;;;;;;;;4993035;28;20513;-58
2021/09/27 02:03:00;;;;;;;26.95;13.57;;;;;;;;;;4988177;28;20042;-57
2021/09/27 02:05:46;;;;;;;27.05;13.25;;;;;;;;;;4995436;28;20068;-58
2021/09/27 02:08:46;;;;;;;24.98;13.40;;;;;;;;;;5048800;28;20045;-57
2021/09/27 02:11:21;;;;;;;26.30;13.20;;;;;;;;;;4995276;28;20031;-58
2021/09/27 02:14:06;;;;;;;29.15;14.30;;;;;;;;;;5046329;28;20449;-57
2021/09/27 02:16:50;;;;;;;26.98;13.70;;;;;;;;;;5043100;28;20034;-57
2021/09/27 02:19:18;;;;;;;28.23;13.00;;;;;;;;;;4983959;28;20038;-60
2021/09/27 02:21:49;;;;;;;28.05;14.35;;;;;;;;;;5048608;28;20023;-57
2021/09/27 02:24:30;;;;;;;26.05;13.35;;;;;;;;;;4982849;28;20199;-57
2021/09/27 02:26:56;;;;;;;24.88;13.48;;;;;;;;;;4981966;28;20274;-58
2021/09/27 02:29:22;;;;;;;26.50;14.27;;;;;;;;;;4981064;28;20562;-57
2021/09/27 02:32:13;;;;;;;27.27;13.30;;;;;;;;;;5001060;28;20026;-61
2021/09/27 02:34:43;;;;;;;28.15;13.52;;;;;;;;;;4977159;28;20035;-58
2021/09/27 02:37:08;;;;;;;;;;;;;;;;;;5016483;28;20031;-58
2021/09/27 02:39:41;;;;;;;27.67;13.13;;;;;;;;;;4986067;28;20242;-57
2021/09/27 02:42:09;;;;;;;31.52;14.27;;;;;;;;;;4997357;28;20038;-58
2021/09/27 02:44:35;;;;;;;27.30;13.57;;;;;;;;;;4998407;28;20431;-58
2021/09/27 02:47:04;;;;;;;28.52;14.88;;;;;;;;;;4988713;28;20034;-58
2021/09/27 02:49:41;;;;;;;24.02;12.63;;;;;;;;;;4997579;28;20038;-57
2021/09/27 02:52:06;;;;;;;27.88;14.20;;;;;;;;;;4982951;28;20033;-58
2021/09/27 02:54:37;;;;;;;28.20;14.27;;;;;;;;;;4986355;28;20045;-58
2021/09/27 02:57:28;;;;;;;25.27;14.05;;;;;;;;;;5006489;28;20498;-57
2021/09/27 03:00:15;;;;;;;25.75;14.93;;;;;;;;;;4997048;28;20448;-58
2021/09/27 03:02:59;;;;;;;25.52;13.65;;;;;;;;;;4989582;28;20440;-57
2021/09/27 03:05:46;;;;;;;26.05;13.18;;;;;;;;;;4990718;28;20154;-57
2021/09/27 03:08:33;;;;;;;25.88;12.60;;;;;;;;;;5049710;28;20030;-58
2021/09/27 03:10:58;;;;;;;22.42;12.68;;;;;;;;;;4986121;28;20489;-57
2021/09/27 03:13:55;;;;;;;26.77;12.82;;;;;;;;;;4980939;28;20083;-58
2021/09/27 03:16:44;;;;;;;25.50;12.60;;;;;;;;;;4996330;28;20030;-57
2021/09/27 03:19:36;;;;;;;21.95;11.55;;;;;;;;;;5002982;28;20034;-57
2021/09/27 03:22:19;;;;;;;29.38;13.48;;;;;;;;;;4980393;28;20040;-57
2021/09/27 03:25:12;;;;;;;22.00;11.98;;;;;;;;;;5004465;28;20026;-57
2021/09/27 03:28:04;;;;;;;22.73;11.20;;;;;;;;;;4990157;28;20368;-60
2021/09/27 03:31:07;;;;;;;21.73;11.40;;;;;;;;;;4994025;28;20080;-58
2021/09/27 03:34:07;;;;;;;19.55;10.73;;;;;;;;;;5006130;28;20041;-57
2021/09/27 03:37:09;;;;;;;22.38;10.73;;;;;;;;;;5001942;28;20034;-57
2021/09/27 03:40:13;;;;;;;22.50;10.45;;;;;;;;;;4988010;28;20027;-59
2021/09/27 03:42:53;;;;;;;19.83;10.68;;;;;;;;;;4995323;28;20051;-59
2021/09/27 03:45:26;;;;;;;20.08;10.65;;;;;;;;;;4990419;28;20054;-61
2021/09/27 03:48:04;;;;;;;20.35;10.52;;;;;;;;;;4989867;28;20026;-58
2021/09/27 03:51:10;;;;;;;21.27;10.43;;;;;;;;;;4992900;28;20083;-57
2021/09/27 03:53:43;;;;;;;18.17;9.27;;;;;;;;;;4988079;28;20067;-58
2021/09/27 03:56:34;;;;;;;22.33;10.52;;;;;;;;;;4991195;28;20034;-57
2021/09/27 03:59:13;;;;;;;18.83;10.73;;;;;;;;;;4994938;28;20072;-57
2021/09/27 04:01:46;;;;;;;19.48;10.48;;;;;;;;;;4993893;28;20049;-57
2021/09/27 04:04:35;;;;;;;19.38;10.57;;;;;;;;;;4990807;28;20099;-57
2021/09/27 04:07:24;;;;;;;20.80;10.50;;;;;;;;;;4980756;28;20117;-57
2021/09/27 04:10:08;;;;;;;19.43;10.10;;;;;;;;;;5046288;28;20046;-58
2021/09/27 04:12:42;;;;;;;23.17;12.57;;;;;;;;;;4995057;28;20038;-59
2021/09/27 04:15:26;;;;;;;31.55;15.02;;;;;;;;;;5042418;28;20026;-57
2021/09/27 04:18:23;;;;;;;23.75;12.23;;;;;;;;;;5069610;28;20036;-57
2021/09/27 04:21:07;;;;;;;20.63;10.20;;;;;;;;;;4995907;28;20512;-57
2021/09/27 04:23:53;;;;;;;22.65;11.60;;;;;;;;;;5017446;28;20038;-57
2021/09/27 04:26:32;;;;;;;20.63;10.30;;;;;;;;;;4986518;28;20026;-57
2021/09/27 04:29:16;;;;;;;25.25;11.43;;;;;;;;;;4998791;28;20350;-57
2021/09/27 04:32:09;;;;;;;25.27;11.68;;;;;;;;;;5001907;28;20042;-57
2021/09/27 04:34:50;;;;;;;20.77;9.50;;;;;;;;;;4981167;28;20134;-57
2021/09/27 04:37:17;;;;;;;18.27;9.60;;;;;;;;;;4993669;28;20026;-62
2021/09/27 04:39:45;;;;;;;20.48;9.68;;;;;;;;;;4987844;28;20110;-60
2021/09/27 04:42:29;;;;;;;19.15;9.43;;;;;;;;;;4985452;28;20113;-60
2021/09/27 04:45:13;;;;;;;25.33;12.00;;;;;;;;;;4982735;28;20340;-57
2021/09/27 04:47:44;;;;;;;21.30;10.35;;;;;;;;;;4993907;28;20080;-59
2021/09/27 04:50:14;;;;;;;23.27;10.93;;;;;;;;;;4990161;28;20030;-57
2021/09/27 04:53:01;;;;;;;20.20;10.15;;;;;;;;;;5046698;28;20447;-60
2021/09/27 04:56:11;;;;;;;20.90;11.15;;;;;;;;;;4984807;28;20023;-60
2021/09/27 04:58:46;;;;;;;22.80;9.20;;;;;;;;;;4998585;28;20065;-59
2021/09/27 05:01:20;;;;;;;18.73;10.32;;;;;;;;;;4988714;28;20030;-62
2021/09/27 05:03:54;;;;;;;23.40;12.73;;;;;;;;;;5050260;28;20034;-58
2021/09/27 05:06:50;;;;;;;20.70;11.65;;;;;;;;;;4989561;28;20045;-58
2021/09/27 05:09:20;;;;;;;21.30;10.43;;;;;;;;;;4996209;28;20175;-58
2021/09/27 05:11:48;;;;;;;14.93;8.95;;;;;;;;;;5000460;28;20018;-58
2021/09/27 05:14:35;;;;;;;18.38;9.48;;;;;;;;;;4997772;28;20034;-58
2021/09/27 05:17:19;;;;;;;20.30;9.93;;;;;;;;;;4983079;28;20038;-58
2021/09/27 05:20:12;;;;;;;18.42;10.18;;;;;;;;;;4980220;28;20469;-57
2021/09/27 05:22:49;;;;;;;17.67;9.18;;;;;;;;;;4982515;28;20087;-57
2021/09/27 05:25:27;;;;;;;21.48;10.25;;;;;;;;;;4983409;28;20103;-58
2021/09/27 05:28:18;;;;;;;20.10;10.48;;;;;;;;;;4996024;28;20030;-58
2021/09/27 05:30:49;;;;;;;16.65;9.27;;;;;;;;;;5037234;28;20449;-58
2021/09/27 05:33:28;;;;;;;17.30;9.27;;;;;;;;;;4982073;28;20407;-61
2021/09/27 05:35:56;;;;;;;16.13;8.53;;;;;;;;;;4985113;28;20489;-62
2021/09/27 05:38:37;;;;;;;19.60;10.20;;;;;;;;;;4994796;28;20078;-61
2021/09/27 05:41:12;;;;;;;18.05;10.00;;;;;;;;;;4985322;28;20522;-59
2021/09/27 05:43:55;;;;;;;18.80;10.07;;;;;;;;;;5013081;28;20536;-58
2021/09/27 05:46:45;;;;;;;21.58;11.60;;;;;;;;;;4984036;28;20053;-58
2021/09/27 05:49:37;;;;;;;28.30;13.27;;;;;;;;;;4992242;28;20465;-61
2021/09/27 05:52:11;;;;;;;17.77;9.15;;;;;;;;;;5045640;28;20110;-60
2021/09/27 05:54:49;;;;;;;17.80;9.40;;;;;;;;;;4996992;28;20445;-58
2021/09/27 05:57:20;;;;;;;17.40;8.50;;;;;;;;;;4995344;28;20028;-57
2021/09/27 05:59:55;;;;;;;18.95;9.43;;;;;;;;;;4988643;28;20508;-58
2021/09/27 06:02:23;;;;;;;21.88;10.02;;;;;;;;;;4989653;28;20065;-58
2021/09/27 06:05:10;;;;;;;20.73;10.00;;;;;;;;;;5000522;28;20037;-59
2021/09/27 06:07:54;;;;;;;17.58;9.20;;;;;;;;;;4995614;28;20027;-58
2021/09/27 06:10:34;;;;;;;20.38;9.50;;;;;;;;;;4987947;28;20095;-58
2021/09/27 06:13:18;;;;;;;18.45;9.02;;;;;;;;;;5046935;28;20073;-59
2021/09/27 06:15:52;;;;;;;20.30;9.32;;;;;;;;;;4985630;28;20034;-58
2021/09/27 06:18:39;;;;;;;19.35;9.82;;;;;;;;;;4997270;28;20034;-58
2021/09/27 06:21:23;;;;;;;19.13;9.65;;;;;;;;;;4998940;28;20042;-58
2021/09/27 06:24:10;;;;;;;17.92;9.30;;;;;;;;;;5048695;28;20081;-58
2021/09/27 06:26:44;;;;;;;20.15;9.00;;;;;;;;;;4994271;28;20034;-58
2021/09/27 06:29:12;;;;;;;16.35;8.73;;;;;;;;;;5004751;28;20038;-58
2021/09/27 06:32:15;;;;;;;21.33;10.20;;;;;;;;;;4989541;28;20025;-58
2021/09/27 06:34:50;;;;;;;18.63;9.48;;;;;;;;;;4983521;28;20034;-60
2021/09/27 06:37:19;;;;;;;17.98;9.32;;;;;;;;;;4996596;28;20022;-58
2021/09/27 06:39:45;;;;;;;20.53;9.97;;;;;;;;;;4996488;28;20226;-58
2021/09/27 06:42:10;;;;;;;22.52;11.02;;;;;;;;;;4993596;28;20029;-58
2021/09/27 06:44:36;;;;;;;20.13;11.30;;;;;;;;;;4991189;28;20670;-61
2021/09/27 06:47:01;;;;;;;23.50;11.80;;;;;;;;;;4981306;28;20027;-61
2021/09/27 06:49:27;;;;;;;22.85;11.30;;;;;;;;;;4986562;28;20030;-60
2021/09/27 06:51:54;;;;;;;24.45;11.43;;;;;;;;;;5054867;28;20035;-62
2021/09/27 06:54:20;;;;;;;26.48;11.93;;;;;;;;;;4992414;28;20473;-58
2021/09/27 06:56:46;;;;;;;23.30;12.27;;;;;;;;;;4990335;28;20098;-58
2021/09/27 06:59:14;;;;;;;28.33;13.38;;;;;;;;;;4985595;28;20042;-58
2021/09/27 07:01:40;;;;;;;28.77;13.13;;;;;;;;;;4984567;28;20042;-58
2021/09/27 07:04:05;;;;;;;28.33;13.30;;;;;;;;;;4984282;28;20029;-58
2021/09/27 07:06:31;;;;;;;27.80;13.50;;;;;;;;;;5032747;28;20559;-58
2021/09/27 07:08:56;;;;;;;34.13;14.70;;;;;;;;;;4989541;28;20070;-61
2021/09/27 07:11:22;;;;;;;28.88;13.45;;;;;;;;;;4983735;28;20034;-61
2021/09/27 07:13:49;;;;;;;28.17;14.52;;;;;;;;;;4984105;28;20036;-61
2021/09/27 07:16:14;;;;;;;30.95;13.52;;;;;;;;;;5042429;28;20026;-61
2021/09/27 07:18:40;;;;;;;29.55;13.25;;;;;;;;;;4987749;28;20041;-60
2021/09/27 07:21:08;;;;;;;48.03;14.52;;;;;;;;;;4987565;28;20406;-58
2021/09/27 07:23:40;;;;;;;39.17;14.90;;;;;;;;;;5042663;28;20042;-58
2021/09/27 07:26:10;;;;;;;36.50;13.50;;;;;;;;;;4984019;28;20034;-58
2021/09/27 07:28:36;;;;;;;36.53;14.50;;;;;;;;;;4992663;28;20162;-61
2021/09/27 07:31:02;;;;;;;38.17;14.27;;;;;;;;;;4984965;28;20109;-62
2021/09/27 07:33:28;;;;;;;26.67;14.35;;;;;;;;;;4977255;28;20424;-61
2021/09/27 07:35:55;;;;;;;28.40;13.75;;;;;;;;;;5048703;28;20030;-62
2021/09/27 07:38:21;;;;;;;29.40;14.40;;;;;;;;;;5046259;28;20349;-58
2021/09/27 07:40:46;;;;;;;30.88;14.95;;;;;;;;;;4987291;28;20041;-59
2021/09/27 07:43:12;;;;;;;34.92;15.00;;;;;;;;;;4979088;28;20026;-62
2021/09/27 07:45:37;;;;;;;29.73;13.63;;;;;;;;;;4992515;28;20393;-62
2021/09/27 07:48:16;;;;;;;25.60;11.95;;;;;;;;;;5046203;28;20042;-60
2021/09/27 07:50:44;;;;;;;19.23;10.93;;;;;;;;;;5006005;28;20082;-58
2021/09/27 07:53:10;;;;;;;17.40;10.13;;;;;;;;;;4988840;28;20084;-58
2021/09/27 07:55:36;;;;;;;18.27;10.35;;;;;;;;;;4992458;28;20042;-62
2021/09/27 07:58:02;;;;;;;19.08;9.43;;;;;;;;;;4986028;28;20026;-61
2021/09/27 08:00:28;;;;;;;15.32;9.13;;;;;;;;;;4988402;28;20024;-58
2021/09/27 08:02:53;;;;;;;16.40;8.98;;;;;;;;;;4984693;28;20030;-58
2021/09/27 08:05:25;;;;;;;15.55;9.10;;;;;;;;;;4986015;28;20034;-60
2021/09/27 08:07:51;;;;;;;15.05;8.40;;;;;;;;;;4977095;28;20126;-62
2021/09/27 08:10:19;;;;;;;14.80;9.20;;;;;;;;;;5049867;28;20102;-59
2021/09/27 08:12:45;;;;;;;16.42;8.38;;;;;;;;;;4978867;28;20392;-59
2021/09/27 08:15:14;;;;;;;11.82;7.70;;;;;;;;;;5047671;28;20033;-58
2021/09/27 08:17:39;;;;;;;;;;;;;;;;;;5046937;28;20049;-59
2021/09/27 08:20:08;;;;;;;14.48;7.47;;;;;;;;;;5010911;28;19926;-58
2021/09/27 08:22:33;;;;;;;13.57;7.75;;;;;;;;;;4991930;28;20121;-59
2021/09/27 08:24:59;;;;;;;11.63;7.25;;;;;;;;;;4994511;28;20720;-60
2021/09/27 08:27:24;;;;;;;13.77;7.70;;;;;;;;;;4989273;28;20034;-58
2021/09/27 08:29:50;;;;;;;12.15;7.35;;;;;;;;;;4986421;28;20030;-58
2021/09/27 08:32:15;;;;;;;12.48;7.70;;;;;;;;;;4985640;28;20117;-59
2021/09/27 08:34:43;;;;;;;18.40;9.15;;;;;;;;;;4983942;28;20035;-58
2021/09/27 08:37:09;;;;;;;13.90;8.73;;;;;;;;;;4983336;28;20096;-61
2021/09/27 08:39:34;;;;;;;13.43;7.32;;;;;;;;;;4977178;28;20038;-58
2021/09/27 08:42:01;;;;;;;10.80;6.68;;;;;;;;;;4988337;28;20044;-62
2021/09/27 08:44:45;;;;;;;9.57;6.53;;;;;;;;;;4990838;28;20401;-58
2021/09/27 08:47:35;;;;;;;11.70;7.10;;;;;;;;;;5046000;28;20332;-58
2021/09/27 08:50:19;;;;;;;12.07;7.60;;;;;;;;;;4992455;28;20486;-58
2021/09/27 08:52:44;;;;;;;12.65;6.93;;;;;;;;;;4996424;28;20045;-58
2021/09/27 08:55:13;;;;;;;9.68;7.03;;;;;;;;;;5002892;28;20046;-60
2021/09/27 08:57:59;;;;;;;11.23;7.05;;;;;;;;;;4996694;28;20476;-58
2021/09/27 09:00:48;;;;;;;10.90;7.18;;;;;;;;;;4991796;28;20347;-61
2021/09/27 09:03:52;;;;;;;10.38;6.60;;;;;;;;;;4989232;28;20160;-58
2021/09/27 09:06:31;;;;;;;14.73;6.95;;;;;;;;;;4975466;28;20501;-58
2021/09/27 09:09:19;;;;;;;10.32;6.82;;;;;;;;;;4980492;28;20042;-58
2021/09/27 09:11:54;;;;;;;9.23;6.28;;;;;;;;;;4986235;28;20602;-59
2021/09/27 09:14:39;;;;;;;9.63;6.28;;;;;;;;;;4993472;28;20030;-62
2021/09/27 09:17:26;;;;;;;11.48;6.25;;;;;;;;;;5001777;28;20459;-61
2021/09/27 09:19:52;;;;;;;9.45;5.93;;;;;;;;;;5006127;28;20085;-60
2021/09/27 09:22:47;;;;;;;9.43;6.50;;;;;;;;;;4999520;28;20374;-58
2021/09/27 09:25:30;;;;;;;10.98;6.35;;;;;;;;;;4993394;28;20038;-58
2021/09/27 09:27:57;;;;;;;8.27;6.60;;;;;;;;;;5000170;28;20955;-58
2021/09/27 09:30:34;;;;;;;11.82;7.03;;;;;;;;;;4983235;28;20417;-59
2021/09/27 09:32:59;;;;;;;10.18;6.80;;;;;;;;;;5046450;28;20056;-57
2021/09/27 09:35:29;;;;;;;8.18;5.80;;;;;;;;;;4994631;28;20547;-59
2021/09/27 09:38:05;;;;;;;8.60;6.30;;;;;;;;;;4989763;28;20408;-58
2021/09/27 09:40:36;;;;;;;9.90;6.90;;;;;;;;;;4991371;28;20108;-60
2021/09/27 09:43:09;;;;;;;9.30;5.85;;;;;;;;;;4991312;28;20451;-57
2021/09/27 09:45:39;;;;;;;8.18;6.07;;;;;;;;;;4996701;28;20443;-59
2021/09/27 09:48:18;;;;;;;;;;;;;;;;;;4988430;28;20026;-59
2021/09/27 09:50:44;;;;;;;;;;;;;;;;;;4985746;28;19917;-59
2021/09/27 09:53:20;;;;;;;16.52;5.65;;;;;;;;;;4991765;28;20069;-58
2021/09/27 09:56:00;;;;;;;10.15;6.22;;;;;;;;;;4987735;28;20026;-58
2021/09/27 09:58:49;;;;;;;8.90;5.85;;;;;;;;;;4979120;28;20057;-60
2021/09/27 10:01:20;;;;;;;10.23;5.65;;;;;;;;;;4988279;28;20409;-59
2021/09/27 10:03:59;;;;;;;8.25;5.70;;;;;;;;;;4991645;28;20380;-62
2021/09/27 10:06:32;;;;;;;10.05;6.35;;;;;;;;;;5000521;28;20069;-59
2021/09/27 10:09:00;;;;;;;7.80;5.47;;;;;;;;;;5042870;28;20034;-58
2021/09/27 10:11:34;;;;;;;7.45;5.38;;;;;;;;;;5019526;28;20069;-58
2021/09/27 10:14:17;;;;;;;8.00;5.07;;;;;;;;;;4995874;28;20354;-59
2021/09/27 10:16:54;;;;;;;7.70;5.50;;;;;;;;;;5000924;28;20037;-59
2021/09/27 10:19:25;;;;;;;8.88;5.85;;;;;;;;;;4991279;28;20041;-60
2021/09/27 10:21:54;;;;;;;10.30;5.50;;;;;;;;;;4984013;28;20023;-59
2021/09/27 10:24:22;;;;;;;8.60;5.47;;;;;;;;;;4989441;28;20032;-63
2021/09/27 10:26:53;;;;;;;8.10;5.47;;;;;;;;;;4983149;28;20034;-61
2021/09/27 10:29:26;;;;;;;11.02;5.70;;;;;;;;;;4986642;28;20035;-60
2021/09/27 10:31:56;;;;;;;7.38;5.20;;;;;;;;;;4992012;28;20054;-59
2021/09/27 10:34:24;;;;;;;8.13;5.40;;;;;;;;;;4981429;28;20474;-59
2021/09/27 10:36:58;;;;;;;9.02;5.85;;;;;;;;;;4982407;28;20084;-62
2021/09/27 10:39:25;;;;;;;10.18;6.13;;;;;;;;;;4986729;28;20091;-61
2021/09/27 10:42:01;;;;;;;8.80;5.30;;;;;;;;;;5014572;28;20038;-59
2021/09/27 10:44:32;;;;;;;7.68;5.45;;;;;;;;;;4982567;28;20098;-59
2021/09/27 10:47:05;;;;;;;8.88;5.63;;;;;;;;;;4997700;28;20629;-59
2021/09/27 10:49:35;;;;;;;7.32;5.78;;;;;;;;;;4988933;28;20037;-59
2021/09/27 10:52:16;;;;;;;7.60;5.30;;;;;;;;;;4992212;28;20586;-60
2021/09/27 10:54:45;;;;;;;7.80;5.03;;;;;;;;;;5039783;28;20031;-59
2021/09/27 10:57:19;;;;;;;9.95;5.65;;;;;;;;;;5051730;28;20022;-59
2021/09/27 10:59:55;;;;;;;7.50;5.68;;;;;;;;;;4993179;28;20038;-59
2021/09/27 11:02:43;;;;;;;7.55;5.50;;;;;;;;;;5001938;28;20042;-61
2021/09/27 11:05:43;;;;;;;5.82;5.20;;;;;;;;;;5001544;28;20026;-62
2021/09/27 11:08:12;;;;;;;6.63;5.25;;;;;;;;;;4983454;28;20023;-59
2021/09/27 11:10:42;;;;;;;;;;;;;;;;;;5036034;28;20650;-60
2021/09/27 11:13:16;;;;;;;9.32;4.90;;;;;;;;;;5062566;28;19919;-59
2021/09/27 11:15:53;;;;;;;6.65;4.97;;;;;;;;;;4997609;28;20052;-60
2021/09/27 11:18:31;;;;;;;192.45;171.73;;;;;;;;;;4988636;28;20547;-58
2021/09/27 11:20:59;;;;;;;176.80;163.38;;;;;;;;;;4984279;28;20030;-60
2021/09/27 11:23:38;;;;;;;441.30;134.07;;;;;;;;;;4983137;28;20148;-58
2021/09/27 11:26:15;;;;;;;;;;;;;;;;;;4974270;28;20030;-58
2021/09/27 11:28:53;;;;;;;7.15;4.53;;;;;;;;;;4997734;28;19912;-62
2021/09/27 11:31:27;;;;;;;8.88;4.53;;;;;;;;;;4988256;28;20027;-59
2021/09/27 11:33:56;;;;;;;4.68;3.92;;;;;;;;;;4984429;28;20089;-59
2021/09/27 11:36:27;;;;;;;7.82;3.60;;;;;;;;;;4995360;28;20400;-62
2021/09/27 11:39:05;;;;;;;4.68;3.90;;;;;;;;;;4995232;28;20034;-62
2021/09/27 11:41:37;;;;;;;5.80;3.55;;;;;;;;;;5055285;28;20433;-58
2021/09/27 11:44:08;;;;;;;4.25;3.45;;;;;;;;;;4985467;28;20034;-59
2021/09/27 11:46:37;;;;;;;6.03;3.67;;;;;;;;;;4984256;28;20038;-59
2021/09/27 11:52:03;;;;;;;5.82;4.20;;;;;;;;;;4991711;28;20452;-62
2021/09/27 11:54:38;;;;;;;4.80;3.80;;;;;;;;;;4977404;28;20027;-61
2021/09/27 11:57:27;;;;;;;4.55;3.55;;;;;;;;;;4991186;28;20522;-63
2021/09/27 12:00:21;;;;;;;4.32;2.97;;;;;;;;;;4981467;28;20081;-61
2021/09/27 12:03:08;;;;;;;3.78;3.40;;;;;;;;;;4996104;28;20504;-61
2021/09/27 12:05:45;;;;;;;4.53;3.10;;;;;;;;;;5000998;28;20038;-63
2021/09/27 12:08:13;;;;;;;4.20;3.33;;;;;;;;;;5043337;28;20038;-60
2021/09/27 12:10:59;;;;;;;3.20;2.78;;;;;;;;;;5007826;28;20038;-58
2021/09/27 12:13:55;;;;;;;5.88;3.15;;;;;;;;;;5001842;28;20501;-60
2021/09/27 12:16:47;;;;;;;5.78;3.35;;;;;;;;;;5042922;28;20384;-61
2021/09/27 12:19:28;;;;;;;5.95;3.28;;;;;;;;;;4989216;28;20026;-61
2021/09/27 12:22:07;;;;;;;4.35;3.03;;;;;;;;;;5013968;28;20041;-62
2021/09/27 12:24:36;;;;;;;3.97;3.00;;;;;;;;;;4987906;28;20116;-58
2021/09/27 12:27:23;;;;;;;5.05;2.80;;;;;;;;;;4993143;28;20043;-60
2021/09/27 12:30:02;;;;;;;3.63;2.70;;;;;;;;;;5048052;28;20026;-62
2021/09/27 12:32:30;;;;;;;4.40;2.70;;;;;;;;;;4985737;28;20100;-62
2021/09/27 12:34:58;;;;;;;4.35;3.00;;;;;;;;;;4997722;28;20028;-60
2021/09/27 12:37:24;;;;;;;7.53;3.08;;;;;;;;;;5000298;28;20115;-59
2021/09/27 12:39:50;;;;;;;4.43;2.85;;;;;;;;;;5038646;28;20076;-60
2021/09/27 12:42:22;;;;;;;4.45;3.20;;;;;;;;;;4989671;28;20026;-59
2021/09/27 12:45:08;;;;;;;5.40;3.35;;;;;;;;;;4993349;28;20053;-59
2021/09/27 12:47:34;;;;;;;4.32;3.00;;;;;;;;;;4987565;28;20046;-59
2021/09/27 12:50:05;;;;;;;7.90;3.17;;;;;;;;;;5024827;28;20035;-61
2021/09/27 12:52:37;;;;;;;4.32;3.30;;;;;;;;;;4987214;28;20114;-63
2021/09/27 12:55:08;;;;;;;6.60;3.70;;;;;;;;;;4974472;28;20030;-60
2021/09/27 12:57:56;;;;;;;7.47;3.88;;;;;;;;;;4997059;28;20096;-59
2021/09/27 13:00:33;;;;;;;4.63;3.58;;;;;;;;;;4985243;28;20051;-63
2021/09/27 13:03:03;;;;;;;3.90;3.50;;;;;;;;;;5050519;28;20522;-65
2021/09/27 13:05:48;;;;;;;4.75;3.85;;;;;;;;;;4996866;28;20404;-62
2021/09/27 13:08:27;;;;;;;5.30;3.65;;;;;;;;;;4985040;28;20030;-60
2021/09/27 13:10:58;;;;;;;5.03;3.22;;;;;;;;;;5046578;28;20481;-60
2021/09/27 13:13:32;;;;;;;4.60;3.42;;;;;;;;;;4995326;28;20047;-60
2021/09/27 13:16:01;;;;;;;6.57;3.15;;;;;;;;;;4986928;28;20028;-62
2021/09/27 13:18:28;;;;;;;3.72;3.03;;;;;;;;;;5042447;28;20113;-60
2021/09/27 13:21:12;;;;;;;4.80;3.22;;;;;;;;;;4980904;28;20412;-60
2021/09/27 13:23:47;;;;;;;5.07;3.42;;;;;;;;;;5046612;28;20033;-63
2021/09/27 13:26:21;;;;;;;5.20;3.70;;;;;;;;;;4979922;28;20117;-63
2021/09/27 13:28:57;;;;;;;7.72;3.38;;;;;;;;;;5041755;28;20061;-63
2021/09/27 13:31:33;;;;;;;3.28;2.90;;;;;;;;;;5003062;28;20057;-60
2021/09/27 13:34:03;;;;;;;4.13;2.70;;;;;;;;;;5041284;28;20026;-62
2021/09/27 13:36:44;;;;;;;3.95;2.90;;;;;;;;;;4973320;28;20390;-62
2021/09/27 13:39:12;;;;;;;5.40;2.70;;;;;;;;;;4984573;28;20100;-63
2021/09/27 13:41:52;;;;;;;3.42;2.55;;;;;;;;;;4991833;28;20038;-63
2021/09/27 13:44:35;;;;;;;4.57;3.08;;;;;;;;;;4982533;28;20032;-60
2021/09/27 13:47:01;;;;;;;3.75;2.50;;;;;;;;;;4987537;28;20053;-59
2021/09/27 13:49:27;;;;;;;5.75;2.47;;;;;;;;;;5005765;28;20103;-63
2021/09/27 13:51:53;;;;;;;5.78;2.72;;;;;;;;;;4986986;28;20018;-60
2021/09/27 13:54:19;;;;;;;4.35;2.95;;;;;;;;;;4977754;28;20098;-63
2021/09/27 13:56:45;;;;;;;4.95;3.03;;;;;;;;;;5001298;28;20026;-64
2021/09/27 13:59:11;;;;;;;4.55;3.28;;;;;;;;;;5008406;28;20024;-63
2021/09/27 14:01:36;;;;;;;4.45;2.95;;;;;;;;;;4984081;28;20053;-62
2021/09/27 14:04:02;;;;;;;3.03;2.70;;;;;;;;;;5026947;28;20055;-63
2021/09/27 14:06:29;;;;;;;3.95;2.60;;;;;;;;;;5006370;28;20030;-61
2021/09/27 14:08:56;;;;;;;3.08;2.20;;;;;;;;;;4994020;28;20102;-58
2021/09/27 14:11:22;;;;;;;3.40;2.60;;;;;;;;;;4982471;28;20553;-59
2021/09/27 14:13:48;;;;;;;2.58;2.25;;;;;;;;;;5045628;28;20138;-62
2021/09/27 14:16:15;;;;;;;4.18;2.45;;;;;;;;;;5038941;28;20501;-62
2021/09/27 14:18:42;;;;;;;5.00;2.60;;;;;;;;;;5013693;28;20032;-58
2021/09/27 14:21:09;;;;;;;3.22;2.85;;;;;;;;;;4987999;28;20039;-59
2021/09/27 14:23:35;;;;;;;4.05;2.47;;;;;;;;;;4981189;28;20034;-58
2021/09/27 14:26:04;;;;;;;4.00;2.80;;;;;;;;;;5045492;28;20022;-59
2021/09/27 14:28:30;;;;;;;4.13;2.50;;;;;;;;;;4980332;28;20122;-61
2021/09/27 14:30:57;;;;;;;7.97;4.07;;;;;;;;;;4988378;28;20053;-60
2021/09/27 14:33:26;;;;;;;7.45;2.92;;;;;;;;;;4978698;28;20058;-58
2021/09/27 14:35:51;;;;;;;4.90;2.72;;;;;;;;;;4980977;28;20285;-58
2021/09/27 14:38:17;;;;;;;3.50;2.60;;;;;;;;;;5013293;28;20048;-62
2021/09/27 14:40:42;;;;;;;6.82;3.17;;;;;;;;;;5001902;28;20059;-59
2021/09/27 14:43:08;;;;;;;4.05;3.05;;;;;;;;;;4988902;28;20088;-59
2021/09/27 14:45:34;;;;;;;3.85;2.50;;;;;;;;;;5004446;28;20032;-59
2021/09/27 14:47:59;;;;;;;4.13;2.83;;;;;;;;;;5045892;28;20030;-58
2021/09/27 14:50:29;;;;;;;4.15;3.28;;;;;;;;;;4996152;28;20014;-58
2021/09/27 14:52:55;;;;;;;4.38;2.90;;;;;;;;;;4990734;28;20132;-60
2021/09/27 14:55:23;;;;;;;6.18;3.92;;;;;;;;;;4986974;28;20034;-60
2021/09/27 14:57:48;;;;;;;7.97;4.43;;;;;;;;;;5002506;28;20515;-58
2021/09/27 15:00:18;;;;;;;4.45;3.58;;;;;;;;;;5001416;28;20067;-59
2021/09/27 15:02:44;;;;;;;4.55;2.85;;;;;;;;;;5004320;28;20160;-59
2021/09/27 15:05:11;;;;;;;4.60;2.80;;;;;;;;;;5020408;28;20514;-62
2021/09/27 15:07:37;;;;;;;5.03;3.13;;;;;;;;;;5000763;28;20035;-59
2021/09/27 15:10:05;;;;;;;4.32;2.97;;;;;;;;;;5001087;28;20102;-58
2021/09/27 15:12:31;;;;;;;3.67;2.58;;;;;;;;;;4990275;28;20463;-58
2021/09/27 15:14:57;;;;;;;5.18;3.97;;;;;;;;;;5004723;28;20119;-62
2021/09/27 15:17:22;;;;;;;6.47;3.55;;;;;;;;;;4985851;28;20210;-60
2021/09/27 15:19:49;;;;;;;3.40;2.55;;;;;;;;;;4985290;28;20662;-62